sensor_id;sensor_type;location;lat;lon;timestamp;temperature;humidity
60860;DHT22;46694;54.382;9.708;2023-03-18T00:01:42;10.60;99.90
60860;DHT22;46694;54.382;9.708;2023-03-18T00:04:22;10.60;99.90
60860;DHT22;46694;54.382;9.708;2023-03-18T00:07:02;10.50;99.90
60860;DHT22;46694;54.382;9.708;2023-03-18T00:09:42;10.50;99.90
60860;DHT22;46694;54.382;9.708;2023-03-18T00:12:22;10.40;99.90
60860;DHT22;46694;54.382;9.708;2023-03-18T00:15:06;10.40;99.90
60860;DHT22;46694;54.382;9.708;2023-03-18T00:17:46;10.30;99.90
60860;DHT22;46694;54.382;9.708;2023-03-18T00:20:27;10.30;99.90
60860;DHT22;46694;54.382;9.708;2023-03-18T00:23:16;10.20;99.90
60860;DHT22;46694;54.382;9.708;2023-03-18T00:25:57;10.20;99.90
60860;DHT22;46694;54.382;9.708;2023-03-18T00:28:38;10.20;99.90
60860;DHT22;46694;54.382;9.708;2023-03-18T00:31:18;10.10;99.90
60860;DHT22;46694;54.382;9.708;2023-03-18T00:33:58;10.20;99.90
60860;DHT22;46694;54.382;9.708;2023-03-18T00:36:37;10.20;99.90
60860;DHT22;46694;54.382;9.708;2023-03-18T00:39:18;10.20;99.90
60860;DHT22;46694;54.382;9.708;2023-03-18T00:42:04;10.10;99.90
60860;DHT22;46694;54.382;9.708;2023-03-18T00:44:48;10.00;99.90
60860;DHT22;46694;54.382;9.708;2023-03-18T00:47:28;10.00;99.90
60860;DHT22;46694;54.382;9.708;2023-03-18T00:50:08;10.10;99.90
60860;DHT22;46694;54.382;9.708;2023-03-18T00:52:48;10.00;99.90
60860;DHT22;46694;54.382;9.708;2023-03-18T00:55:28;10.10;99.90
60860;DHT22;46694;54.382;9.708;2023-03-18T00:58:09;10.10;99.90
60860;DHT22;46694;54.382;9.708;2023-03-18T01:00:49;10.20;99.90
60860;DHT22;46694;54.382;9.708;2023-03-18T01:03:29;10.20;99.90
60860;DHT22;46694;54.382;9.708;2023-03-18T01:06:12;10.30;99.90
60860;DHT22;46694;54.382;9.708;2023-03-18T01:08:55;10.20;99.90
60860;DHT22;46694;54.382;9.708;2023-03-18T01:11:34;10.20;99.90
60860;DHT22;46694;54.382;9.708;2023-03-18T01:14:14;10.20;99.90
60860;DHT22;46694;54.382;9.708;2023-03-18T01:16:53;10.20;99.90
60860;DHT22;46694;54.382;9.708;2023-03-18T01:19:34;10.20;99.90
60860;DHT22;46694;54.382;9.708;2023-03-18T01:22:15;10.20;99.90
60860;DHT22;46694;54.382;9.708;2023-03-18T01:24:55;10.20;99.90
60860;DHT22;46694;54.382;9.708;2023-03-18T01:27:36;10.20;99.90
60860;DHT22;46694;54.382;9.708;2023-03-18T01:30:16;10.20;99.90
60860;DHT22;46694;54.382;9.708;2023-03-18T01:32:57;10.20;99.90
60860;DHT22;46694;54.382;9.708;2023-03-18T01:35:37;10.30;99.90
60860;DHT22;46694;54.382;9.708;2023-03-18T01:38:17;10.30;99.90
60860;DHT22;46694;54.382;9.708;2023-03-18T01:40:58;10.20;99.90
60860;DHT22;46694;54.382;9.708;2023-03-18T01:43:40;10.30;99.90
60860;DHT22;46694;54.382;9.708;2023-03-18T01:46:41;10.30;99.90
60860;DHT22;46694;54.382;9.708;2023-03-18T01:52:19;10.30;99.90
60860;DHT22;46694;54.382;9.708;2023-03-18T01:55:28;10.20;99.90
60860;DHT22;46694;54.382;9.708;2023-03-18T01:58:24;10.20;99.90
60860;DHT22;46694;54.382;9.708;2023-03-18T02:01:18;10.10;99.90
60860;DHT22;46694;54.382;9.708;2023-03-18T02:04:06;10.10;99.90
60860;DHT22;46694;54.382;9.708;2023-03-18T02:06:47;10.10;99.90
60860;DHT22;46694;54.382;9.708;2023-03-18T02:09:26;10.10;99.90
60860;DHT22;46694;54.382;9.708;2023-03-18T02:12:08;10.10;99.90
60860;DHT22;46694;54.382;9.708;2023-03-18T02:14:50;10.10;99.90
60860;DHT22;46694;54.382;9.708;2023-03-18T02:17:34;10.10;99.90
60860;DHT22;46694;54.382;9.708;2023-03-18T02:23:24;10.20;99.90
60860;DHT22;46694;54.382;9.708;2023-03-18T02:29:39;10.20;99.90
60860;DHT22;46694;54.382;9.708;2023-03-18T02:32:20;10.20;99.90
60860;DHT22;46694;54.382;9.708;2023-03-18T02:35:03;10.20;99.90
60860;DHT22;46694;54.382;9.708;2023-03-18T02:37:44;10.20;99.90
60860;DHT22;46694;54.382;9.708;2023-03-18T02:40:30;10.20;99.90
60860;DHT22;46694;54.382;9.708;2023-03-18T02:43:26;10.20;99.90
60860;DHT22;46694;54.382;9.708;2023-03-18T02:49:07;10.20;99.90
60860;DHT22;46694;54.382;9.708;2023-03-18T02:51:47;10.20;99.90
60860;DHT22;46694;54.382;9.708;2023-03-18T02:54:29;10.20;99.90
60860;DHT22;46694;54.382;9.708;2023-03-18T02:57:09;10.20;99.90
60860;DHT22;46694;54.382;9.708;2023-03-18T02:59:48;10.20;99.90
60860;DHT22;46694;54.382;9.708;2023-03-18T03:02:28;10.10;99.90
60860;DHT22;46694;54.382;9.708;2023-03-18T03:05:08;10.10;99.90
60860;DHT22;46694;54.382;9.708;2023-03-18T03:07:48;10.20;99.90
60860;DHT22;46694;54.382;9.708;2023-03-18T03:10:28;10.20;99.90
60860;DHT22;46694;54.382;9.708;2023-03-18T03:13:08;10.10;99.90
60860;DHT22;46694;54.382;9.708;2023-03-18T03:15:49;10.10;99.90
60860;DHT22;46694;54.382;9.708;2023-03-18T03:18:29;10.10;99.90
60860;DHT22;46694;54.382;9.708;2023-03-18T03:21:09;10.00;99.90
60860;DHT22;46694;54.382;9.708;2023-03-18T03:23:49;9.90;99.90
60860;DHT22;46694;54.382;9.708;2023-03-18T03:26:29;9.80;99.90
60860;DHT22;46694;54.382;9.708;2023-03-18T03:29:09;9.80;99.90
60860;DHT22;46694;54.382;9.708;2023-03-18T03:31:50;9.80;99.90
60860;DHT22;46694;54.382;9.708;2023-03-18T03:34:30;9.80;99.90
60860;DHT22;46694;54.382;9.708;2023-03-18T03:37:10;9.80;99.90
60860;DHT22;46694;54.382;9.708;2023-03-18T03:39:50;9.70;99.90
60860;DHT22;46694;54.382;9.708;2023-03-18T03:42:29;9.60;99.90
60860;DHT22;46694;54.382;9.708;2023-03-18T03:45:09;9.60;99.90
60860;DHT22;46694;54.382;9.708;2023-03-18T03:47:50;9.60;99.90
60860;DHT22;46694;54.382;9.708;2023-03-18T03:50:30;9.70;99.90
60860;DHT22;46694;54.382;9.708;2023-03-18T03:53:09;9.70;99.90
60860;DHT22;46694;54.382;9.708;2023-03-18T03:55:49;9.80;99.90
60860;DHT22;46694;54.382;9.708;2023-03-18T03:58:29;9.90;99.90
60860;DHT22;46694;54.382;9.708;2023-03-18T04:01:09;9.90;99.90
60860;DHT22;46694;54.382;9.708;2023-03-18T04:03:48;9.90;99.90
60860;DHT22;46694;54.382;9.708;2023-03-18T04:06:28;10.00;99.90
60860;DHT22;46694;54.382;9.708;2023-03-18T04:09:08;10.00;99.90
60860;DHT22;46694;54.382;9.708;2023-03-18T04:11:48;10.10;99.90
60860;DHT22;46694;54.382;9.708;2023-03-18T04:14:27;10.10;99.90
60860;DHT22;46694;54.382;9.708;2023-03-18T04:17:07;10.10;99.90
60860;DHT22;46694;54.382;9.708;2023-03-18T04:19:46;10.10;99.90
60860;DHT22;46694;54.382;9.708;2023-03-18T04:22:26;10.00;99.90
60860;DHT22;46694;54.382;9.708;2023-03-18T04:25:06;10.00;99.90
60860;DHT22;46694;54.382;9.708;2023-03-18T04:27:48;10.00;99.90
60860;DHT22;46694;54.382;9.708;2023-03-18T04:30:30;10.00;99.90
60860;DHT22;46694;54.382;9.708;2023-03-18T04:33:10;10.00;99.90
60860;DHT22;46694;54.382;9.708;2023-03-18T04:35:50;9.90;99.90
60860;DHT22;46694;54.382;9.708;2023-03-18T04:38:30;9.90;99.90
60860;DHT22;46694;54.382;9.708;2023-03-18T04:41:10;9.90;99.90
60860;DHT22;46694;54.382;9.708;2023-03-18T04:43:50;9.90;99.90
60860;DHT22;46694;54.382;9.708;2023-03-18T04:46:29;9.90;99.90
60860;DHT22;46694;54.382;9.708;2023-03-18T04:49:10;9.90;99.90
60860;DHT22;46694;54.382;9.708;2023-03-18T04:51:51;9.90;99.90
60860;DHT22;46694;54.382;9.708;2023-03-18T04:54:31;9.90;99.90
60860;DHT22;46694;54.382;9.708;2023-03-18T04:57:10;9.90;99.90
60860;DHT22;46694;54.382;9.708;2023-03-18T04:59:50;9.90;99.90
60860;DHT22;46694;54.382;9.708;2023-03-18T05:02:30;9.90;99.90
60860;DHT22;46694;54.382;9.708;2023-03-18T05:05:09;10.00;99.90
60860;DHT22;46694;54.382;9.708;2023-03-18T05:07:49;10.00;99.90
60860;DHT22;46694;54.382;9.708;2023-03-18T05:10:29;10.00;99.90
60860;DHT22;46694;54.382;9.708;2023-03-18T05:13:09;10.10;99.90
60860;DHT22;46694;54.382;9.708;2023-03-18T05:15:49;10.10;99.90
60860;DHT22;46694;54.382;9.708;2023-03-18T05:18:28;10.20;99.90
60860;DHT22;46694;54.382;9.708;2023-03-18T05:21:08;10.20;99.90
60860;DHT22;46694;54.382;9.708;2023-03-18T05:23:48;10.20;99.90
60860;DHT22;46694;54.382;9.708;2023-03-18T05:26:27;10.20;99.90
60860;DHT22;46694;54.382;9.708;2023-03-18T05:29:07;10.30;99.90
60860;DHT22;46694;54.382;9.708;2023-03-18T05:31:47;10.30;99.90
60860;DHT22;46694;54.382;9.708;2023-03-18T05:34:27;10.30;99.90
60860;DHT22;46694;54.382;9.708;2023-03-18T05:37:09;10.30;99.90
60860;DHT22;46694;54.382;9.708;2023-03-18T05:39:50;10.30;99.90
60860;DHT22;46694;54.382;9.708;2023-03-18T05:42:29;10.30;99.90
60860;DHT22;46694;54.382;9.708;2023-03-18T05:45:09;10.30;99.90
60860;DHT22;46694;54.382;9.708;2023-03-18T05:47:49;10.30;99.90
60860;DHT22;46694;54.382;9.708;2023-03-18T05:50:40;10.20;99.90
60860;DHT22;46694;54.382;9.708;2023-03-18T05:53:21;10.20;99.90
60860;DHT22;46694;54.382;9.708;2023-03-18T05:56:01;10.30;99.90
60860;DHT22;46694;54.382;9.708;2023-03-18T05:58:41;10.30;99.90
60860;DHT22;46694;54.382;9.708;2023-03-18T06:01:21;10.20;99.90
60860;DHT22;46694;54.382;9.708;2023-03-18T06:04:01;10.30;99.90
60860;DHT22;46694;54.382;9.708;2023-03-18T06:06:40;10.30;99.90
60860;DHT22;46694;54.382;9.708;2023-03-18T06:09:20;10.30;99.90
60860;DHT22;46694;54.382;9.708;2023-03-18T06:12:00;10.30;99.90
60860;DHT22;46694;54.382;9.708;2023-03-18T06:14:40;10.20;99.90
60860;DHT22;46694;54.382;9.708;2023-03-18T06:17:19;10.20;99.90
60860;DHT22;46694;54.382;9.708;2023-03-18T06:19:59;10.30;99.90
60860;DHT22;46694;54.382;9.708;2023-03-18T06:22:39;10.30;99.90
60860;DHT22;46694;54.382;9.708;2023-03-18T06:25:20;10.30;99.90
60860;DHT22;46694;54.382;9.708;2023-03-18T06:28:00;10.30;99.90
60860;DHT22;46694;54.382;9.708;2023-03-18T06:30:40;10.30;99.90
60860;DHT22;46694;54.382;9.708;2023-03-18T06:33:20;10.40;99.90
60860;DHT22;46694;54.382;9.708;2023-03-18T06:36:00;10.40;99.90
60860;DHT22;46694;54.382;9.708;2023-03-18T06:38:44;10.40;99.90
60860;DHT22;46694;54.382;9.708;2023-03-18T06:41:23;10.40;99.90
60860;DHT22;46694;54.382;9.708;2023-03-18T06:44:03;10.40;99.90
60860;DHT22;46694;54.382;9.708;2023-03-18T06:46:43;10.50;99.90
60860;DHT22;46694;54.382;9.708;2023-03-18T06:49:23;10.50;99.90
60860;DHT22;46694;54.382;9.708;2023-03-18T06:52:02;10.50;99.90
60860;DHT22;46694;54.382;9.708;2023-03-18T06:54:42;10.60;99.90
60860;DHT22;46694;54.382;9.708;2023-03-18T06:57:22;10.60;99.90
60860;DHT22;46694;54.382;9.708;2023-03-18T07:00:03;10.60;99.90
60860;DHT22;46694;54.382;9.708;2023-03-18T07:02:43;10.60;99.90
60860;DHT22;46694;54.382;9.708;2023-03-18T07:05:23;10.70;99.90
60860;DHT22;46694;54.382;9.708;2023-03-18T07:08:04;10.70;99.90
60860;DHT22;46694;54.382;9.708;2023-03-18T07:10:44;10.70;99.90
60860;DHT22;46694;54.382;9.708;2023-03-18T07:13:24;10.80;99.90
60860;DHT22;46694;54.382;9.708;2023-03-18T07:16:04;10.90;99.90
60860;DHT22;46694;54.382;9.708;2023-03-18T07:18:44;10.90;99.90
60860;DHT22;46694;54.382;9.708;2023-03-18T07:21:24;11.00;99.90
60860;DHT22;46694;54.382;9.708;2023-03-18T07:24:03;11.00;99.90
60860;DHT22;46694;54.382;9.708;2023-03-18T07:26:43;11.00;99.90
60860;DHT22;46694;54.382;9.708;2023-03-18T07:29:23;11.10;99.90
60860;DHT22;46694;54.382;9.708;2023-03-18T07:32:03;11.10;99.90
60860;DHT22;46694;54.382;9.708;2023-03-18T07:34:42;11.10;99.90
60860;DHT22;46694;54.382;9.708;2023-03-18T07:37:22;11.10;99.90
60860;DHT22;46694;54.382;9.708;2023-03-18T07:40:02;11.10;99.90
60860;DHT22;46694;54.382;9.708;2023-03-18T07:42:42;11.10;99.90
60860;DHT22;46694;54.382;9.708;2023-03-18T07:45:22;11.00;99.90
60860;DHT22;46694;54.382;9.708;2023-03-18T07:48:02;11.10;99.90
60860;DHT22;46694;54.382;9.708;2023-03-18T07:50:41;11.10;99.90
60860;DHT22;46694;54.382;9.708;2023-03-18T07:53:21;11.10;99.90
60860;DHT22;46694;54.382;9.708;2023-03-18T07:56:00;11.10;99.90
60860;DHT22;46694;54.382;9.708;2023-03-18T07:58:40;11.20;99.90
60860;DHT22;46694;54.382;9.708;2023-03-18T08:01:19;11.20;99.90
60860;DHT22;46694;54.382;9.708;2023-03-18T08:03:59;11.30;99.90
60860;DHT22;46694;54.382;9.708;2023-03-18T08:06:38;11.50;99.90
60860;DHT22;46694;54.382;9.708;2023-03-18T08:09:18;11.70;99.90
60860;DHT22;46694;54.382;9.708;2023-03-18T08:11:57;12.00;99.90
60860;DHT22;46694;54.382;9.708;2023-03-18T08:14:37;12.30;99.90
60860;DHT22;46694;54.382;9.708;2023-03-18T08:17:18;12.60;99.90
60860;DHT22;46694;54.382;9.708;2023-03-18T08:19:57;12.90;99.90
60860;DHT22;46694;54.382;9.708;2023-03-18T08:22:37;13.10;99.90
60860;DHT22;46694;54.382;9.708;2023-03-18T08:25:16;13.30;99.90
60860;DHT22;46694;54.382;9.708;2023-03-18T08:27:56;13.50;99.90
60860;DHT22;46694;54.382;9.708;2023-03-18T08:30:38;13.70;99.90
60860;DHT22;46694;54.382;9.708;2023-03-18T08:33:17;13.70;99.90
60860;DHT22;46694;54.382;9.708;2023-03-18T08:35:57;13.50;99.90
60860;DHT22;46694;54.382;9.708;2023-03-18T08:38:38;13.20;99.90
60860;DHT22;46694;54.382;9.708;2023-03-18T08:41:23;13.10;99.90
60860;DHT22;46694;54.382;9.708;2023-03-18T08:44:04;13.00;99.90
60860;DHT22;46694;54.382;9.708;2023-03-18T08:46:46;12.90;99.90
60860;DHT22;46694;54.382;9.708;2023-03-18T08:49:25;12.90;99.90
60860;DHT22;46694;54.382;9.708;2023-03-18T08:52:05;12.80;99.90
60860;DHT22;46694;54.382;9.708;2023-03-18T08:54:45;12.80;99.90
60860;DHT22;46694;54.382;9.708;2023-03-18T08:57:24;12.70;99.90
60860;DHT22;46694;54.382;9.708;2023-03-18T09:00:06;12.70;99.90
60860;DHT22;46694;54.382;9.708;2023-03-18T09:02:47;12.70;99.90
60860;DHT22;46694;54.382;9.708;2023-03-18T09:05:26;12.80;99.90
60860;DHT22;46694;54.382;9.708;2023-03-18T09:08:06;12.80;99.90
60860;DHT22;46694;54.382;9.708;2023-03-18T09:10:47;12.90;99.90
60860;DHT22;46694;54.382;9.708;2023-03-18T09:13:26;12.90;99.90
60860;DHT22;46694;54.382;9.708;2023-03-18T09:16:06;12.90;99.90
60860;DHT22;46694;54.382;9.708;2023-03-18T09:18:46;13.00;99.90
60860;DHT22;46694;54.382;9.708;2023-03-18T09:21:26;13.00;99.90
60860;DHT22;46694;54.382;9.708;2023-03-18T09:24:06;13.10;99.90
60860;DHT22;46694;54.382;9.708;2023-03-18T09:26:45;13.10;99.90
60860;DHT22;46694;54.382;9.708;2023-03-18T09:29:25;13.10;99.90
60860;DHT22;46694;54.382;9.708;2023-03-18T09:32:08;13.10;99.90
60860;DHT22;46694;54.382;9.708;2023-03-18T09:34:48;13.10;99.90
60860;DHT22;46694;54.382;9.708;2023-03-18T09:37:27;13.10;99.90
60860;DHT22;46694;54.382;9.708;2023-03-18T09:40:09;13.10;99.90
60860;DHT22;46694;54.382;9.708;2023-03-18T09:43:19;13.10;99.90
60860;DHT22;46694;54.382;9.708;2023-03-18T09:46:24;13.10;99.90
60860;DHT22;46694;54.382;9.708;2023-03-18T09:55:08;13.20;99.90
60860;DHT22;46694;54.382;9.708;2023-03-18T09:57:56;13.20;99.90
60860;DHT22;46694;54.382;9.708;2023-03-18T10:00:41;13.20;99.90
60860;DHT22;46694;54.382;9.708;2023-03-18T10:03:33;13.20;99.90
60860;DHT22;46694;54.382;9.708;2023-03-18T10:06:20;13.20;99.90
60860;DHT22;46694;54.382;9.708;2023-03-18T10:09:23;13.20;99.90
60860;DHT22;46694;54.382;9.708;2023-03-18T10:15:23;13.30;99.90
60860;DHT22;46694;54.382;9.708;2023-03-18T10:18:11;13.30;99.90
60860;DHT22;46694;54.382;9.708;2023-03-18T10:24:31;13.30;99.90
60860;DHT22;46694;54.382;9.708;2023-03-18T10:30:28;14.40;99.90
60860;DHT22;46694;54.382;9.708;2023-03-18T10:39:17;15.10;99.90
60860;DHT22;46694;54.382;9.708;2023-03-18T10:41:59;15.10;99.90
60860;DHT22;46694;54.382;9.708;2023-03-18T10:44:40;15.30;99.90
60860;DHT22;46694;54.382;9.708;2023-03-18T10:47:32;15.40;99.90
60860;DHT22;46694;54.382;9.708;2023-03-18T10:50:41;15.50;99.90
60860;DHT22;46694;54.382;9.708;2023-03-18T10:53:31;15.40;99.90
60860;DHT22;46694;54.382;9.708;2023-03-18T10:56:15;15.40;99.90
60860;DHT22;46694;54.382;9.708;2023-03-18T10:58:54;15.40;99.90
60860;DHT22;46694;54.382;9.708;2023-03-18T11:01:35;15.40;99.90
60860;DHT22;46694;54.382;9.708;2023-03-18T11:04:19;15.30;99.90
60860;DHT22;46694;54.382;9.708;2023-03-18T11:07:02;15.30;99.90
60860;DHT22;46694;54.382;9.708;2023-03-18T11:09:42;15.20;99.90
60860;DHT22;46694;54.382;9.708;2023-03-18T11:12:26;15.00;99.90
60860;DHT22;46694;54.382;9.708;2023-03-18T11:15:10;15.00;99.90
60860;DHT22;46694;54.382;9.708;2023-03-18T11:17:50;15.10;99.90
60860;DHT22;46694;54.382;9.708;2023-03-18T11:20:36;15.20;99.90
60860;DHT22;46694;54.382;9.708;2023-03-18T11:26:28;15.10;99.90
60860;DHT22;46694;54.382;9.708;2023-03-18T11:29:11;15.00;99.90
60860;DHT22;46694;54.382;9.708;2023-03-18T11:31:58;14.80;99.90
60860;DHT22;46694;54.382;9.708;2023-03-18T11:34:39;14.70;99.90
60860;DHT22;46694;54.382;9.708;2023-03-18T11:37:19;14.60;99.90
60860;DHT22;46694;54.382;9.708;2023-03-18T11:40:18;14.50;99.90
60860;DHT22;46694;54.382;9.708;2023-03-18T11:43:03;14.50;99.90
60860;DHT22;46694;54.382;9.708;2023-03-18T11:46:00;14.70;99.90
60860;DHT22;46694;54.382;9.708;2023-03-18T11:48:42;15.10;99.90
60860;DHT22;46694;54.382;9.708;2023-03-18T11:51:31;15.30;99.90
60860;DHT22;46694;54.382;9.708;2023-03-18T11:54:37;15.50;99.90
60860;DHT22;46694;54.382;9.708;2023-03-18T12:07:03;15.60;99.90
60860;DHT22;46694;54.382;9.708;2023-03-18T12:10:33;15.50;99.90
60860;DHT22;46694;54.382;9.708;2023-03-18T12:13:29;15.50;99.90
60860;DHT22;46694;54.382;9.708;2023-03-18T12:20:47;15.20;99.90
60860;DHT22;46694;54.382;9.708;2023-03-18T12:23:44;14.80;99.90
60860;DHT22;46694;54.382;9.708;2023-03-18T12:26:39;14.60;99.90
60860;DHT22;46694;54.382;9.708;2023-03-18T12:33:01;14.40;99.90
60860;DHT22;46694;54.382;9.708;2023-03-18T12:47:43;14.30;99.90
60860;DHT22;46694;54.382;9.708;2023-03-18T12:50:48;14.40;99.90
60860;DHT22;46694;54.382;9.708;2023-03-18T12:53:35;14.30;99.90
60860;DHT22;46694;54.382;9.708;2023-03-18T12:56:22;14.20;99.90
60860;DHT22;46694;54.382;9.708;2023-03-18T12:59:13;14.30;99.90
60860;DHT22;46694;54.382;9.708;2023-03-18T13:05:03;14.40;99.90
60860;DHT22;46694;54.382;9.708;2023-03-18T13:13:59;14.50;99.90
60860;DHT22;46694;54.382;9.708;2023-03-18T13:16:43;14.40;99.90
60860;DHT22;46694;54.382;9.708;2023-03-18T13:19:25;14.40;99.90
60860;DHT22;46694;54.382;9.708;2023-03-18T13:25:38;14.40;99.90
60860;DHT22;46694;54.382;9.708;2023-03-18T13:44:18;14.70;99.90
60860;DHT22;46694;54.382;9.708;2023-03-18T13:47:04;14.80;99.90
60860;DHT22;46694;54.382;9.708;2023-03-18T13:49:47;14.80;99.90
60860;DHT22;46694;54.382;9.708;2023-03-18T13:52:38;14.90;99.90
60860;DHT22;46694;54.382;9.708;2023-03-18T13:55:50;14.90;99.90
60860;DHT22;46694;54.382;9.708;2023-03-18T13:58:45;15.00;99.90
60860;DHT22;46694;54.382;9.708;2023-03-18T14:04:28;15.20;99.90
60860;DHT22;46694;54.382;9.708;2023-03-18T14:07:20;15.30;99.90
60860;DHT22;46694;54.382;9.708;2023-03-18T14:12:40;15.20;99.90
60860;DHT22;46694;54.382;9.708;2023-03-18T14:15:39;15.10;99.90
60860;DHT22;46694;54.382;9.708;2023-03-18T14:18:24;15.00;99.90
60860;DHT22;46694;54.382;9.708;2023-03-18T14:21:05;14.90;99.90
60860;DHT22;46694;54.382;9.708;2023-03-18T14:29:44;14.70;99.90
60860;DHT22;46694;54.382;9.708;2023-03-18T14:32:35;14.60;99.90
60860;DHT22;46694;54.382;9.708;2023-03-18T14:38:13;14.60;99.90
60860;DHT22;46694;54.382;9.708;2023-03-18T14:40:59;14.60;99.90
60860;DHT22;46694;54.382;9.708;2023-03-18T14:43:44;14.60;99.90
60860;DHT22;46694;54.382;9.708;2023-03-18T14:46:36;14.50;99.90
60860;DHT22;46694;54.382;9.708;2023-03-18T14:52:50;14.50;99.90
60860;DHT22;46694;54.382;9.708;2023-03-18T14:55:30;14.40;99.90
60860;DHT22;46694;54.382;9.708;2023-03-18T14:58:15;14.30;99.90
60860;DHT22;46694;54.382;9.708;2023-03-18T15:01:07;14.20;99.90
60860;DHT22;46694;54.382;9.708;2023-03-18T15:03:49;14.10;99.90
60860;DHT22;46694;54.382;9.708;2023-03-18T15:06:30;14.10;99.90
60860;DHT22;46694;54.382;9.708;2023-03-18T15:09:18;14.20;99.90
60860;DHT22;46694;54.382;9.708;2023-03-18T15:12:21;14.20;99.90
60860;DHT22;46694;54.382;9.708;2023-03-18T15:15:05;14.20;99.90
60860;DHT22;46694;54.382;9.708;2023-03-18T15:17:49;14.20;99.90
60860;DHT22;46694;54.382;9.708;2023-03-18T15:20:32;14.10;99.90
60860;DHT22;46694;54.382;9.708;2023-03-18T15:23:14;14.00;99.90
60860;DHT22;46694;54.382;9.708;2023-03-18T15:25:55;14.00;99.90
60860;DHT22;46694;54.382;9.708;2023-03-18T15:28:35;14.00;99.90
60860;DHT22;46694;54.382;9.708;2023-03-18T15:31:28;13.90;99.90
60860;DHT22;46694;54.382;9.708;2023-03-18T15:34:21;13.90;99.90
60860;DHT22;46694;54.382;9.708;2023-03-18T15:37:41;13.90;99.90
60860;DHT22;46694;54.382;9.708;2023-03-18T15:40:24;13.90;99.90
60860;DHT22;46694;54.382;9.708;2023-03-18T15:43:16;13.80;99.90
60860;DHT22;46694;54.382;9.708;2023-03-18T15:46:24;13.80;99.90
60860;DHT22;46694;54.382;9.708;2023-03-18T15:49:09;13.80;99.90
60860;DHT22;46694;54.382;9.708;2023-03-18T15:52:00;13.70;99.90
60860;DHT22;46694;54.382;9.708;2023-03-18T15:54:40;13.70;99.90
60860;DHT22;46694;54.382;9.708;2023-03-18T15:57:36;13.60;99.90
60860;DHT22;46694;54.382;9.708;2023-03-18T16:00:17;13.60;99.90
60860;DHT22;46694;54.382;9.708;2023-03-18T16:02:56;13.40;99.90
60860;DHT22;46694;54.382;9.708;2023-03-18T16:05:37;13.40;99.90
60860;DHT22;46694;54.382;9.708;2023-03-18T16:08:18;13.30;99.90
60860;DHT22;46694;54.382;9.708;2023-03-18T16:11:01;13.20;99.90
60860;DHT22;46694;54.382;9.708;2023-03-18T16:13:42;13.20;99.90
60860;DHT22;46694;54.382;9.708;2023-03-18T16:16:26;13.20;99.90
60860;DHT22;46694;54.382;9.708;2023-03-18T16:19:23;13.20;99.90
60860;DHT22;46694;54.382;9.708;2023-03-18T16:22:07;13.20;99.90
60860;DHT22;46694;54.382;9.708;2023-03-18T16:24:46;13.10;99.90
60860;DHT22;46694;54.382;9.708;2023-03-18T16:27:36;13.10;99.90
60860;DHT22;46694;54.382;9.708;2023-03-18T16:30:20;13.00;99.90
60860;DHT22;46694;54.382;9.708;2023-03-18T16:33:07;13.00;99.90
60860;DHT22;46694;54.382;9.708;2023-03-18T16:35:57;13.00;99.90
60860;DHT22;46694;54.382;9.708;2023-03-18T16:38:38;12.90;99.90
60860;DHT22;46694;54.382;9.708;2023-03-18T16:41:19;12.90;99.90
60860;DHT22;46694;54.382;9.708;2023-03-18T16:43:58;12.90;99.90
60860;DHT22;46694;54.382;9.708;2023-03-18T16:46:38;12.90;99.90
60860;DHT22;46694;54.382;9.708;2023-03-18T16:49:26;12.80;99.90
60860;DHT22;46694;54.382;9.708;2023-03-18T16:52:11;12.70;99.90
60860;DHT22;46694;54.382;9.708;2023-03-18T16:54:50;12.60;99.90
60860;DHT22;46694;54.382;9.708;2023-03-18T16:57:30;12.60;99.90
60860;DHT22;46694;54.382;9.708;2023-03-18T17:00:22;12.60;99.90
60860;DHT22;46694;54.382;9.708;2023-03-18T17:03:04;12.50;99.90
60860;DHT22;46694;54.382;9.708;2023-03-18T17:05:46;12.50;99.90
60860;DHT22;46694;54.382;9.708;2023-03-18T17:08:28;12.40;99.90
60860;DHT22;46694;54.382;9.708;2023-03-18T17:11:10;12.40;99.90
60860;DHT22;46694;54.382;9.708;2023-03-18T17:13:55;12.30;99.90
60860;DHT22;46694;54.382;9.708;2023-03-18T17:16:35;12.30;99.90
60860;DHT22;46694;54.382;9.708;2023-03-18T17:19:15;12.30;99.90
60860;DHT22;46694;54.382;9.708;2023-03-18T17:21:55;12.20;99.90
60860;DHT22;46694;54.382;9.708;2023-03-18T17:24:34;12.20;99.90
60860;DHT22;46694;54.382;9.708;2023-03-18T17:27:20;12.10;99.90
60860;DHT22;46694;54.382;9.708;2023-03-18T17:30:05;12.10;99.90
60860;DHT22;46694;54.382;9.708;2023-03-18T17:32:58;12.00;99.90
60860;DHT22;46694;54.382;9.708;2023-03-18T17:35:38;12.00;99.90
60860;DHT22;46694;54.382;9.708;2023-03-18T17:38:18;12.00;99.90
60860;DHT22;46694;54.382;9.708;2023-03-18T17:40:58;11.90;99.90
60860;DHT22;46694;54.382;9.708;2023-03-18T17:43:39;11.90;99.90
60860;DHT22;46694;54.382;9.708;2023-03-18T17:46:20;11.80;99.90
60860;DHT22;46694;54.382;9.708;2023-03-18T17:49:00;11.80;99.90
60860;DHT22;46694;54.382;9.708;2023-03-18T17:51:41;11.70;99.90
60860;DHT22;46694;54.382;9.708;2023-03-18T17:54:23;11.70;99.90
60860;DHT22;46694;54.382;9.708;2023-03-18T17:57:13;11.60;99.90
60860;DHT22;46694;54.382;9.708;2023-03-18T17:59:54;11.50;99.90
60860;DHT22;46694;54.382;9.708;2023-03-18T18:02:35;11.50;99.90
60860;DHT22;46694;54.382;9.708;2023-03-18T18:05:21;11.40;99.90
60860;DHT22;46694;54.382;9.708;2023-03-18T18:08:00;11.40;99.90
60860;DHT22;46694;54.382;9.708;2023-03-18T18:10:42;11.40;99.90
60860;DHT22;46694;54.382;9.708;2023-03-18T18:13:23;11.40;99.90
60860;DHT22;46694;54.382;9.708;2023-03-18T18:16:02;11.30;99.90
60860;DHT22;46694;54.382;9.708;2023-03-18T18:18:42;11.30;99.90
60860;DHT22;46694;54.382;9.708;2023-03-18T18:21:23;11.30;99.90
60860;DHT22;46694;54.382;9.708;2023-03-18T18:24:28;11.20;99.90
60860;DHT22;46694;54.382;9.708;2023-03-18T18:27:10;11.20;99.90
60860;DHT22;46694;54.382;9.708;2023-03-18T18:29:51;11.20;99.90
60860;DHT22;46694;54.382;9.708;2023-03-18T18:32:31;11.10;99.90
60860;DHT22;46694;54.382;9.708;2023-03-18T18:35:17;11.10;99.90
60860;DHT22;46694;54.382;9.708;2023-03-18T18:37:58;11.10;99.90
60860;DHT22;46694;54.382;9.708;2023-03-18T18:40:38;11.00;99.90
60860;DHT22;46694;54.382;9.708;2023-03-18T18:43:19;11.00;99.90
60860;DHT22;46694;54.382;9.708;2023-03-18T18:45:59;11.00;99.90
60860;DHT22;46694;54.382;9.708;2023-03-18T18:48:39;11.00;99.90
60860;DHT22;46694;54.382;9.708;2023-03-18T18:51:20;11.00;99.90
60860;DHT22;46694;54.382;9.708;2023-03-18T18:54:01;11.00;99.90
60860;DHT22;46694;54.382;9.708;2023-03-18T18:56:41;10.90;99.90
60860;DHT22;46694;54.382;9.708;2023-03-18T18:59:27;10.90;99.90
60860;DHT22;46694;54.382;9.708;2023-03-18T19:02:29;10.90;99.90
60860;DHT22;46694;54.382;9.708;2023-03-18T19:05:09;10.90;99.90
60860;DHT22;46694;54.382;9.708;2023-03-18T19:07:49;10.90;99.90